Time;durP1;ratioP1;P1;durP2;ratioP2;P2;SDS_P1;SDS_P2;PMS_P1;PMS_P2;Temp;Humidity;BMP_temperature;BMP_pressure;BME280_temperature;BME280_humidity;BME280_pressure;Samples;Min_cycle;Max_cycle;Signal;HPM_P1;HPM_P2
2023/08/13 00:09:49;;;;;;;12.20;9.10;;;;;;;18.18;70.34;98801.84;435301;1254;107566;-41
2023/08/13 00:19:55;;;;;;;11.60;8.80;;;;;;;18.30;70.35;98808.31;435459;1251;97951;-41
2023/08/13 00:30:03;;;;;;;12.20;8.90;;;;;;;18.36;70.26;98808.02;435458;1253;440340;-43
2023/08/13 00:50:19;;;;;;;9.60;7.20;;;;;;;18.72;70.03;98808.58;435400;1260;110752;-43
2023/08/13 01:00:24;;;;;;;;;;;;;;;18.85;69.67;98809.72;435344;1254;106715;-41
2023/08/13 01:20:39;;;;;;;6.20;5.00;;;;;;;19.03;69.42;98788.70;435495;1253;108065;-41
2023/08/13 01:30:46;;;;;;;6.10;5.40;;;;;;;19.19;69.26;98781.59;435301;1254;99307;-41
2023/08/13 01:40:52;;;;;;;7.80;5.50;;;;;;;19.24;69.17;98781.32;435398;1251;111705;-41
2023/08/13 01:50:59;;;;;;;8.80;6.20;;;;;;;19.16;68.90;98780.64;436323;1253;107477;-42
2023/08/13 02:01:06;;;;;;;5.50;4.80;;;;;;;19.04;68.91;98774.59;435265;1263;98797;-40
2023/08/13 02:11:13;;;;;;;6.40;5.70;;;;;;;18.98;68.95;98782.56;435296;1253;108550;-41
2023/08/13 02:21:20;;;;;;;6.90;5.40;;;;;;;18.97;69.17;98779.05;435307;1261;99314;-41
2023/08/13 02:31:26;;;;;;;6.20;5.60;;;;;;;18.88;69.09;98777.17;435305;1251;111184;-42
2023/08/13 02:41:33;;;;;;;5.40;4.90;;;;;;;18.81;68.92;98776.42;435155;1251;108398;-41
2023/08/13 02:51:41;;;;;;;7.70;5.10;;;;;;;18.86;69.01;98778.05;435310;1253;99234;-41
2023/08/13 03:01:47;;;;;;;7.10;5.10;;;;;;;18.93;69.07;98779.45;435326;1251;109365;-42
2023/08/13 03:11:51;;;;;;;8.80;5.70;;;;;;;18.94;69.08;98779.11;435485;1251;98004;-42
2023/08/13 03:21:59;;;;;;;7.20;4.10;;;;;;;18.95;68.94;98783.29;435323;1254;111154;-42
2023/08/13 03:32:06;;;;;;;6.90;5.60;;;;;;;19.03;68.91;98786.48;435294;1254;107662;-43
2023/08/13 03:42:13;;;;;;;6.60;5.20;;;;;;;19.01;68.94;98789.83;435452;1253;98351;-42
2023/08/13 03:52:21;;;;;;;10.40;5.90;;;;;;;18.98;69.01;98793.50;435384;1253;108171;-43
2023/08/13 04:12:32;;;;;;;7.30;5.20;;;;;;;19.27;68.99;98792.60;435301;1251;111239;-43
2023/08/13 04:22:39;;;;;;;6.50;5.10;;;;;;;19.41;69.07;98791.14;435328;1261;107138;-42
2023/08/13 04:42:59;;;;;;;7.00;4.40;;;;;;;19.46;68.92;98794.84;435267;1251;106540;-43
2023/08/13 05:03:12;;;;;;;5.10;4.70;;;;;;;19.82;68.87;98810.75;435371;1251;111867;-42
2023/08/13 05:13:20;;;;;;;4.90;4.10;;;;;;;19.99;68.74;98819.63;435317;1251;108416;-43
2023/08/13 05:23:27;;;;;;;9.70;5.10;;;;;;;20.21;68.64;98825.81;435315;1253;98076;-44
2023/08/13 05:43:38;;;;;;;5.20;4.70;;;;;;;20.65;68.11;98825.80;435290;1252;98009;-42
2023/08/13 06:03:50;;;;;;;9.70;5.00;;;;;;;21.04;68.12;98833.54;435270;1251;109294;-42
2023/08/13 06:13:57;;;;;;;7.30;4.60;;;;;;;21.47;67.83;98836.40;435377;1254;98540;-42
2023/08/13 06:24:03;;;;;;;5.60;4.30;;;;;;;21.94;67.55;98843.66;435255;1253;109064;-41
2023/08/13 06:34:10;;;;;;;4.50;4.00;;;;;;;22.60;67.47;98839.80;435409;1251;98356;-43
2023/08/13 06:54:22;;;;;;;5.10;4.50;;;;;;;24.48;65.50;98834.31;435527;1251;107824;-39
2023/08/13 07:04:29;;;;;;;;;;;;;;;24.59;64.18;98841.52;435462;1249;99215;-41
2023/08/13 07:24:44;;;;;;;7.60;3.60;;;;;;;25.87;63.04;98862.35;435276;1254;98495;-40
2023/08/13 07:34:53;;;;;;;3.70;3.40;;;;;;;27.16;61.89;98867.59;435481;1250;111172;-42
2023/08/13 07:45:00;;;;;;;5.50;4.00;;;;;;;27.82;59.70;98874.73;435441;1253;108397;-41
2023/08/13 07:55:06;;;;;;;5.70;3.40;;;;;;;28.07;58.61;98881.95;435373;1253;99215;-45
2023/08/13 08:15:21;;;;;;;4.30;3.90;;;;;;;28.56;57.51;98893.70;435319;1250;99353;-41
2023/08/13 08:45:41;;;;;;;10.40;3.50;;;;;;;28.78;55.59;98888.06;435536;1250;97985;-42
2023/08/13 09:05:54;;;;;;;4.00;3.30;;;;;;;29.47;55.22;98876.06;435293;1254;97991;-42
2023/08/13 09:26:19;;;;;;;3.00;2.70;;;;;;;30.02;53.96;98864.33;435477;1250;108611;-41
2023/08/13 09:36:26;;;;;;;2.60;2.40;;;;;;;30.20;53.46;98867.27;435332;1254;99218;-42
2023/08/13 09:46:36;;;;;;;2.20;2.00;;;;;;;30.13;52.87;98864.52;435356;1254;108416;-42
2023/08/13 10:06:50;;;;;;;3.10;2.80;;;;;;;30.17;51.96;98857.76;435463;1254;110638;-41
2023/08/13 10:27:12;;;;;;;4.90;2.60;;;;;;;30.71;52.03;98860.31;435490;1250;99267;-43
2023/08/13 10:37:19;;;;;;;2.30;1.90;;;;;;;30.92;50.98;98858.89;435334;1254;100837;-41
2023/08/13 10:47:38;;;;;;;2.50;2.30;;;;;;;31.05;50.58;98861.58;435521;1253;98038;-42
2023/08/13 10:57:49;;;;;;;3.10;2.00;;;;;;;31.22;50.40;98852.41;435292;1251;103658;-43
2023/08/13 11:07:56;;;;;;;2.60;2.10;;;;;;;31.20;49.18;98856.27;435366;1253;100420;-42
2023/08/13 11:18:03;;;;;;;4.10;2.60;;;;;;;30.73;48.89;98858.61;435244;1250;99202;-42
2023/08/13 11:28:10;;;;;;;5.40;3.00;;;;;;;31.07;49.36;98855.52;435272;1254;99996;-42
2023/08/13 11:38:16;;;;;;;3.60;2.20;;;;;;;31.42;48.93;98848.89;435314;1254;98007;-43
2023/08/13 12:08:37;;;;;;;;;;;;;;;31.61;48.27;98843.60;435494;1250;99124;-43
2023/08/13 12:18:44;;;;;;;5.10;2.20;;;;;;;31.74;48.17;98837.54;435458;1264;99997;-42
2023/08/13 12:38:59;;;;;;;4.00;2.50;;;;;;;31.30;47.35;98827.74;435355;1249;103767;-42
2023/08/13 12:59:10;;;;;;;2.70;2.50;;;;;;;31.05;47.29;98831.61;435379;1254;98820;-42
2023/08/13 13:09:16;;;;;;;8.70;2.70;;;;;;;30.64;47.84;98830.70;435346;1250;107961;-42
2023/08/13 13:19:23;;;;;;;2.60;2.40;;;;;;;30.59;47.84;98825.04;435404;1254;99321;-42
2023/08/13 13:29:28;;;;;;;4.60;2.30;;;;;;;30.32;48.24;98823.43;435339;1254;111581;-42
2023/08/13 13:49:40;;;;;;;4.80;2.90;;;;;;;30.18;48.87;98813.22;435530;1250;99761;-41
2023/08/13 14:20:04;;;;;;;21.30;3.60;;;;;;;29.44;49.38;98802.98;435397;1258;111187;-42
2023/08/13 14:30:13;;;;;;;4.60;2.80;;;;;;;29.28;49.91;98797.95;435292;1254;108711;-42
2023/08/13 14:50:24;;;;;;;5.80;2.80;;;;;;;29.32;50.76;98787.40;435328;1254;109667;-42
2023/08/13 15:00:31;;;;;;;5.70;2.70;;;;;;;29.39;50.69;98784.84;435347;1256;99211;-42
2023/08/13 15:10:38;;;;;;;3.60;2.40;;;;;;;29.21;50.42;98786.70;435451;1253;111439;-41
2023/08/13 15:40:58;;;;;;;4.20;3.00;;;;;;;28.71;51.90;98779.34;435365;1256;108891;-43
2023/08/13 15:51:06;;;;;;;3.40;2.80;;;;;;;28.56;52.04;98777.44;435390;1250;99107;-42
2023/08/13 16:01:15;;;;;;;3.70;3.10;;;;;;;28.29;52.42;98777.34;435357;1254;112288;-43
2023/08/13 16:21:29;;;;;;;8.80;3.40;;;;;;;28.11;53.28;98782.21;435556;1250;99223;-42
2023/08/13 16:31:37;;;;;;;4.30;2.60;;;;;;;28.02;53.80;98785.80;435406;1254;107642;-42
2023/08/13 16:41:45;;;;;;;4.60;3.00;;;;;;;27.93;54.97;98772.39;435246;1251;98906;-44
2023/08/13 16:51:52;;;;;;;7.20;3.60;;;;;;;27.74;56.25;98768.46;435227;1251;111998;-42
2023/08/13 17:02:00;;;;;;;4.20;3.80;;;;;;;27.49;57.24;98766.51;435388;1250;107146;-41
2023/08/13 17:12:05;;;;;;;5.00;4.40;;;;;;;27.26;57.67;98772.12;435271;1256;99867;-43
2023/08/13 17:22:12;;;;;;;10.00;4.90;;;;;;;26.92;58.44;98775.19;435156;1256;107187;-41
2023/08/13 17:32:20;;;;;;;10.20;5.30;;;;;;;26.61;59.31;98785.52;435355;1254;99316;-41
2023/08/13 17:42:27;;;;;;;15.40;5.80;;;;;;;26.50;60.26;98802.23;435192;1250;112188;-41
2023/08/13 18:22:52;;;;;;;7.60;4.20;;;;;;;25.05;62.48;98843.91;435406;1251;99218;-41
2023/08/13 18:43:04;;;;;;;7.70;4.70;;;;;;;24.17;64.19;98844.61;435511;1250;108416;-41
2023/08/13 18:53:10;;;;;;;8.90;4.50;;;;;;;23.72;64.70;98852.54;435458;1254;98262;-45
2023/08/13 19:03:17;;;;;;;5.40;4.40;;;;;;;23.53;65.49;98853.98;435244;1254;108509;-42
2023/08/13 19:23:28;;;;;;;7.80;4.30;;;;;;;23.06;66.28;98857.66;435489;1253;111603;-42
2023/08/13 19:33:33;;;;;;;6.40;5.00;;;;;;;22.75;66.87;98873.65;435242;1254;107459;-44
2023/08/13 19:43:41;;;;;;;10.10;5.90;;;;;;;22.47;67.37;98868.05;435310;1256;99272;-42
2023/08/13 19:53:48;;;;;;;11.80;6.10;;;;;;;22.26;68.47;98860.59;435187;1253;107186;-41
2023/08/13 20:03:55;;;;;;;17.20;6.50;;;;;;;22.32;69.23;98863.96;435287;1256;99215;-45
2023/08/13 20:14:03;;;;;;;9.10;6.50;;;;;;;22.39;69.87;98864.51;435331;1256;112232;-42
2023/08/13 20:24:09;;;;;;;;;;;;;;;22.23;69.98;98852.45;435398;1254;107116;-41
2023/08/13 20:34:15;;;;;;;12.30;7.20;;;;;;;21.95;70.58;98856.67;435457;1254;101512;-41
2023/08/13 20:54:44;;;;;;;14.10;10.80;;;;;;;21.74;71.94;98874.08;435396;1264;99311;-43
2023/08/13 21:04:51;;;;;;;11.80;9.20;;;;;;;21.64;72.74;98871.30;435179;1256;111975;-42
2023/08/13 21:14:58;;;;;;;10.40;8.30;;;;;;;21.55;73.26;98878.19;435181;1250;107561;-41
2023/08/13 21:25:07;;;;;;;10.60;9.00;;;;;;;21.55;73.92;98880.09;435433;1254;99229;-41
2023/08/13 21:35:11;;;;;;;11.70;8.60;;;;;;;21.58;74.23;98874.87;435255;1263;108311;-42
2023/08/13 21:45:18;;;;;;;13.10;8.30;;;;;;;21.43;74.23;98868.48;435317;1256;99224;-41
2023/08/13 21:55:24;;;;;;;10.90;8.20;;;;;;;21.31;74.90;98861.38;435347;1253;111329;-41
2023/08/13 22:05:33;;;;;;;11.90;8.50;;;;;;;21.29;75.28;98862.95;435183;1263;109332;-42
2023/08/13 22:15:39;;;;;;;9.20;8.00;;;;;;;21.34;75.62;98872.89;435366;1253;99851;-41
2023/08/13 22:25:46;;;;;;;11.70;8.10;;;;;;;21.29;75.86;98871.67;435295;1257;107408;-42
2023/08/13 22:35:52;;;;;;;11.10;7.40;;;;;;;21.15;76.05;98877.14;435245;1264;99277;-43
2023/08/13 22:46:00;;;;;;;10.20;8.60;;;;;;;21.17;76.54;98880.27;435382;1253;112881;-42
2023/08/13 22:56:08;;;;;;;15.60;9.00;;;;;;;21.19;77.04;98876.42;435310;1256;107940;-42
2023/08/13 23:06:17;;;;;;;9.00;7.80;;;;;;;21.14;77.05;98875.96;435173;1250;99245;-42
2023/08/13 23:16:24;;;;;;;9.80;7.90;;;;;;;21.12;77.25;98873.90;435488;1254;106113;-42
2023/08/13 23:26:31;;;;;;;11.20;8.80;;;;;;;20.96;77.24;98866.77;435261;1251;99237;-41
2023/08/13 23:36:38;;;;;;;12.60;9.20;;;;;;;20.89;77.58;98864.84;435218;1256;110830;-41
2023/08/13 23:56:49;;;;;;;13.20;11.10;;;;;;;20.69;77.75;98856.85;435347;1254;97986;-42
